createdAt,value
2022-09-11T00:00:18.781Z,71.63
2022-09-11T00:00:52.951Z,72.78
2022-09-11T00:01:27.255Z,73.28
2022-09-11T00:02:09.750Z,72.68
2022-09-11T00:02:42.300Z,72.30
2022-09-11T00:03:16.002Z,71.82
2022-09-11T00:03:59.484Z,72.60
2022-09-11T00:04:35.999Z,72.57
2022-09-11T00:05:10.421Z,73.35
2022-09-11T00:05:43.629Z,73.43
2022-09-11T00:06:29.254Z,72.13
2022-09-11T00:07:02.591Z,72.93
2022-09-11T00:07:39.005Z,73.15
2022-09-11T00:08:14.587Z,72.95
2022-09-11T00:08:49.353Z,72.47
2022-09-11T00:09:22.812Z,73.80
2022-09-11T00:10:44.606Z,74.50
2022-09-11T00:11:27.746Z,73.53
2022-09-11T00:12:00.230Z,73.80
2022-09-11T00:12:33.262Z,73.50
2022-09-11T00:13:07.483Z,72.35
2022-09-11T00:14:03.778Z,74.55
2022-09-11T00:14:37.262Z,74.65
2022-09-11T00:15:12.400Z,74.68
2022-09-11T00:15:59.803Z,73.53
2022-09-11T00:16:39.085Z,74.70
2022-09-11T00:17:11.758Z,73.65
2022-09-11T00:17:55.613Z,73.28
2022-09-11T00:18:31.802Z,75.38
2022-09-11T00:19:35.586Z,74.38
2022-09-11T00:20:16.148Z,73.50
2022-09-11T00:20:59.495Z,73.88
2022-09-11T00:21:55.516Z,74.10
2022-09-11T00:22:28.010Z,73.80
2022-09-11T00:23:05.138Z,73.28
2022-09-11T00:23:37.687Z,73.47
2022-09-11T00:24:11.507Z,74.43
2022-09-11T00:24:47.412Z,74.45
2022-09-11T00:25:20.628Z,73.90
2022-09-11T00:26:20.922Z,73.35
2022-09-11T00:26:53.421Z,74.85
2022-09-11T00:27:26.196Z,73.60
2022-09-11T00:27:59.770Z,73.60
2022-09-11T00:28:46.436Z,74.25
2022-09-11T00:29:30.964Z,73.43
2022-09-11T00:30:03.636Z,73.38
2022-09-11T00:30:58.038Z,73.10
2022-09-11T00:31:33.305Z,74.30
2022-09-11T00:32:06.511Z,74.60
2022-09-11T00:32:39.126Z,73.80
2022-09-11T00:33:14.468Z,73.95
2022-09-11T00:33:47.388Z,72.95
2022-09-11T00:34:19.830Z,74.03
2022-09-11T00:34:53.334Z,73.28
2022-09-11T00:35:26.123Z,74.25
2022-09-11T00:36:01.149Z,74.28
2022-09-11T00:36:35.790Z,73.60
2022-09-11T00:37:09.442Z,74.75
2022-09-11T00:37:41.937Z,74.22
2022-09-11T00:38:17.519Z,74.63
2022-09-11T00:38:50.523Z,73.65
2022-09-11T00:39:23.920Z,74.25
2022-09-11T00:39:56.424Z,74.22
2022-09-11T00:40:28.944Z,74.18
2022-09-11T00:41:03.670Z,74.80
2022-09-11T00:41:39.038Z,74.38
2022-09-11T00:42:12.136Z,74.25
2022-09-11T00:42:44.811Z,74.55
2022-09-11T00:43:17.993Z,74.65
2022-09-11T00:43:56.210Z,75.38
2022-09-11T00:45:00.725Z,74.45
2022-09-11T00:45:35.615Z,74.45
2022-09-11T00:46:08.970Z,73.53
2022-09-11T00:46:46.727Z,74.88
2022-09-11T00:47:20.833Z,75.22
2022-09-11T00:47:58.414Z,75.57
2022-09-11T00:48:35.032Z,74.15
2022-09-11T00:49:17.928Z,75.55
2022-09-11T00:49:54.985Z,74.72
2022-09-11T00:50:30.343Z,74.40
2022-09-11T00:51:05.437Z,74.28
2022-09-11T00:51:38.562Z,74.05
2022-09-11T00:52:15.154Z,74.20
2022-09-11T00:52:53.730Z,73.47
2022-09-11T00:53:30.528Z,74.50
2022-09-11T00:54:04.462Z,75.43
2022-09-11T00:54:43.360Z,74.43
2022-09-11T00:55:18.690Z,74.37
2022-09-11T00:55:56.310Z,73.72
2022-09-11T00:56:35.397Z,74.75
2022-09-11T00:57:09.692Z,73.97
2022-09-11T00:57:46.886Z,74.65
2022-09-11T00:58:23.769Z,74.65
2022-09-11T00:58:57.322Z,74.43
2022-09-11T00:59:31.636Z,75.28
2022-09-11T01:00:08.147Z,75.13
2022-09-11T01:00:44.190Z,75.25
2022-09-11T01:01:17.390Z,75.13
2022-09-11T01:01:50.972Z,74.53
2022-09-11T01:02:27.410Z,74.57
2022-09-11T01:03:00.774Z,75.45
2022-09-11T01:03:34.250Z,74.18
2022-09-11T01:04:08.742Z,75.13
2022-09-11T01:04:42.533Z,74.63
2022-09-11T01:05:16.452Z,74.95
2022-09-11T01:05:50.133Z,74.43
2022-09-11T01:06:24.155Z,74.10
2022-09-11T01:06:57.814Z,74.85
2022-09-11T01:07:32.562Z,74.25
2022-09-11T01:08:05.078Z,75.47
2022-09-11T01:08:40.189Z,74.80
2022-09-11T01:09:13.632Z,74.60
2022-09-11T01:09:46.125Z,75.97
2022-09-11T01:10:18.984Z,74.57
2022-09-11T01:11:01.494Z,74.85
2022-09-11T01:11:47.972Z,73.70
2022-09-11T01:12:23.808Z,74.47
2022-09-11T01:13:06.970Z,75.00
2022-09-11T01:13:48.083Z,74.75
2022-09-11T01:14:36.239Z,75.55
2022-09-11T01:15:13.261Z,74.93
2022-09-11T01:15:53.738Z,75.72
2022-09-11T01:16:34.231Z,74.28
2022-09-11T01:17:19.389Z,75.15
2022-09-11T01:18:00.448Z,75.22
2022-09-11T01:18:41.172Z,74.38
2022-09-11T01:19:30.544Z,73.88
2022-09-11T01:20:28.130Z,74.07
2022-09-11T01:21:18.767Z,74.10
2022-09-11T01:22:18.411Z,75.15
2022-09-11T01:23:10.280Z,74.10
2022-09-11T01:24:02.036Z,72.88
2022-09-11T01:24:56.900Z,74.32
2022-09-11T01:25:43.201Z,72.93
2022-09-11T01:26:52.448Z,72.53
2022-09-11T01:27:46.408Z,73.85
2022-09-11T01:28:23.432Z,73.03
2022-09-11T01:29:01.383Z,72.93
2022-09-11T01:29:40.884Z,73.18
2022-09-11T01:30:15.927Z,72.82
2022-09-11T01:30:54.788Z,72.63
2022-09-11T01:31:36.285Z,73.07
2022-09-11T01:32:15.900Z,73.85
2022-09-11T01:33:12.688Z,72.95
2022-09-11T01:33:50.921Z,73.72
2022-09-11T01:34:33.170Z,73.13
2022-09-11T01:35:12.691Z,73.47
2022-09-11T01:35:54.274Z,72.63
2022-09-11T01:36:31.509Z,73.47
2022-09-11T01:37:07.648Z,72.30
2022-09-11T01:37:44.157Z,72.93
2022-09-11T01:38:22.741Z,74.13
2022-09-11T01:38:58.178Z,72.55
2022-09-11T01:39:37.314Z,73.10
2022-09-11T01:40:18.613Z,73.28
2022-09-11T01:40:54.158Z,72.47
2022-09-11T01:41:30.181Z,73.22
2022-09-11T01:42:09.047Z,73.53
2022-09-11T01:42:46.081Z,72.78
2022-09-11T01:43:22.181Z,73.73
2022-09-11T01:43:59.236Z,72.90
2022-09-11T01:44:36.135Z,73.22
2022-09-11T01:45:09.807Z,74.28
2022-09-11T01:45:46.089Z,73.97
2022-09-11T01:46:23.031Z,73.75
2022-09-11T01:46:58.581Z,73.43
2022-09-11T01:47:35.442Z,73.63
2022-09-11T01:48:08.989Z,73.68
2022-09-11T01:48:44.771Z,74.43
2022-09-11T01:49:21.554Z,73.35
2022-09-11T01:49:58.603Z,73.43
2022-09-11T01:50:35.563Z,72.75
2022-09-11T01:51:10.785Z,73.30
2022-09-11T01:51:47.434Z,72.95
2022-09-11T01:52:20.935Z,73.93
2022-09-11T01:52:58.178Z,72.70
2022-09-11T01:53:32.827Z,72.80
2022-09-11T01:54:08.375Z,73.70
2022-09-11T01:54:43.366Z,74.03
2022-09-11T01:55:17.992Z,74.35
2022-09-11T01:55:52.937Z,73.93
2022-09-11T01:56:28.013Z,73.90
2022-09-11T01:57:01.488Z,74.07
2022-09-11T01:57:36.004Z,74.47
2022-09-11T01:58:11.624Z,73.57
2022-09-11T01:58:47.891Z,74.75
2022-09-11T01:59:21.723Z,73.43
2022-09-11T01:59:58.486Z,73.63
2022-09-11T02:00:32.065Z,73.50
2022-09-11T02:01:05.693Z,73.68
2022-09-11T02:01:40.943Z,74.97
2022-09-11T02:02:13.987Z,73.50
2022-09-11T02:02:47.668Z,72.57
2022-09-11T02:03:23.220Z,73.88
2022-09-11T02:03:59.230Z,73.63
2022-09-11T02:04:33.679Z,75.00
2022-09-11T02:05:10.242Z,74.05
2022-09-11T02:05:46.973Z,73.28
2022-09-11T02:06:27.143Z,74.22
2022-09-11T02:07:03.995Z,74.22
2022-09-11T02:07:39.692Z,74.07
2022-09-11T02:08:13.634Z,73.35
2022-09-11T02:08:49.182Z,74.03
2022-09-11T02:09:27.218Z,73.15
2022-09-11T02:10:00.180Z,74.38
2022-09-11T02:10:38.144Z,72.85
2022-09-11T02:11:11.611Z,73.15
2022-09-11T02:11:48.564Z,74.17
2022-09-11T02:12:25.571Z,73.57
2022-09-11T02:13:01.310Z,73.85
2022-09-11T02:13:39.299Z,73.28
2022-09-11T02:14:16.814Z,73.65
2022-09-11T02:14:50.357Z,74.43
2022-09-11T02:15:23.978Z,73.80
2022-09-11T02:15:59.459Z,74.72
2022-09-11T02:16:35.469Z,73.90
2022-09-11T02:17:14.450Z,74.47
2022-09-11T02:17:50.272Z,73.43
2022-09-11T02:18:24.874Z,74.65
2022-09-11T02:19:01.043Z,75.97
2022-09-11T02:19:33.623Z,75.00
2022-09-11T02:20:05.802Z,74.28
2022-09-11T02:20:37.443Z,74.75
2022-09-11T02:21:09.060Z,74.63
2022-09-11T02:21:45.025Z,74.50
2022-09-11T02:22:16.748Z,72.97
2022-09-11T02:22:49.012Z,73.80
2022-09-11T02:23:22.140Z,74.25
2022-09-11T02:23:57.707Z,73.50
2022-09-11T02:24:29.316Z,74.32
2022-09-11T02:25:02.427Z,73.45
2022-09-11T02:25:34.011Z,74.22
2022-09-11T02:26:10.658Z,74.07
2022-09-11T02:26:44.844Z,74.07
2022-09-11T02:27:18.546Z,73.32
2022-09-11T02:27:50.385Z,73.75
2022-09-11T02:28:22.964Z,73.57
2022-09-11T02:28:56.466Z,73.68
2022-09-11T02:29:28.261Z,73.90
2022-09-11T02:30:00.327Z,73.20
2022-09-11T02:30:36.129Z,73.75
2022-09-11T02:31:10.329Z,73.50
2022-09-11T02:31:42.518Z,72.95
2022-09-11T02:32:15.302Z,73.50
2022-09-11T02:32:47.539Z,73.13
2022-09-11T02:33:26.904Z,73.65
2022-09-11T02:34:00.758Z,72.82
2022-09-11T02:34:34.077Z,72.97
2022-09-11T02:35:07.099Z,73.05
2022-09-11T02:35:43.405Z,72.85
2022-09-11T02:36:31.339Z,73.53
2022-09-11T02:37:08.505Z,73.13
2022-09-11T02:37:49.336Z,72.63
2022-09-11T02:38:25.154Z,72.97
2022-09-11T02:39:02.839Z,72.22
2022-09-11T02:39:40.358Z,74.20
2022-09-11T02:40:19.504Z,73.05
2022-09-11T02:40:55.330Z,72.55
2022-09-11T02:41:30.968Z,73.40
2022-09-11T02:42:13.272Z,72.80
2022-09-11T02:42:52.958Z,73.03
2022-09-11T02:43:33.711Z,73.43
2022-09-11T02:44:10.079Z,73.38
2022-09-11T02:44:49.090Z,73.32
2022-09-11T02:45:29.668Z,73.15
2022-09-11T02:46:12.500Z,73.10
2022-09-11T02:46:56.772Z,73.63
2022-09-11T02:47:36.683Z,73.60
2022-09-11T02:48:16.203Z,73.75
2022-09-11T02:48:53.757Z,73.30
2022-09-11T02:49:28.927Z,73.85
2022-09-11T02:50:08.213Z,73.05
2022-09-11T02:50:45.724Z,73.35
2022-09-11T02:51:24.071Z,73.07
2022-09-11T02:52:00.274Z,72.28
2022-09-11T02:52:36.969Z,72.57
2022-09-11T02:53:11.471Z,73.43
2022-09-11T02:53:48.919Z,74.03
2022-09-11T02:54:23.247Z,73.70
2022-09-11T02:54:56.703Z,73.75
2022-09-11T02:55:32.928Z,73.20
2022-09-11T02:56:08.121Z,72.82
2022-09-11T02:56:44.469Z,73.72
2022-09-11T02:57:19.863Z,73.90
2022-09-11T02:57:55.845Z,72.88
2022-09-11T02:58:31.045Z,73.32
2022-09-11T02:59:07.855Z,72.55
2022-09-11T02:59:43.349Z,73.25
2022-09-11T03:00:16.221Z,73.05
2022-09-11T03:00:48.886Z,74.72
2022-09-11T03:01:20.707Z,72.63
2022-09-11T03:01:53.656Z,73.53
2022-09-11T03:02:29.214Z,73.90
2022-09-11T03:03:00.974Z,72.28
2022-09-11T03:03:36.967Z,73.32
2022-09-11T03:04:09.605Z,73.95
2022-09-11T03:04:41.910Z,72.97
2022-09-11T03:05:13.607Z,72.90
2022-09-11T03:05:47.407Z,73.03
2022-09-11T03:06:20.781Z,72.57
2022-09-11T03:06:53.363Z,72.82
2022-09-11T03:07:26.703Z,73.78
2022-09-11T03:07:58.526Z,72.13
2022-09-11T03:08:32.278Z,73.72
2022-09-11T03:09:05.213Z,73.72
2022-09-11T03:09:36.917Z,73.10
2022-09-11T03:10:14.343Z,72.20
2022-09-11T03:10:47.159Z,73.30
2022-09-11T03:11:19.999Z,72.80
2022-09-11T03:11:55.117Z,73.05
2022-09-11T03:12:28.569Z,72.88
2022-09-11T03:13:00.531Z,72.13
2022-09-11T03:13:36.580Z,72.65
2022-09-11T03:14:09.204Z,72.28
2022-09-11T03:14:44.345Z,73.47
2022-09-11T03:15:17.375Z,72.03
2022-09-11T03:15:50.054Z,71.93
2022-09-11T03:16:21.702Z,72.85
2022-09-11T03:16:55.917Z,72.22
2022-09-11T03:17:28.572Z,73.00
2022-09-11T03:18:01.783Z,72.90
2022-09-11T03:18:33.784Z,71.68
2022-09-11T03:19:05.947Z,72.07
2022-09-11T03:19:38.607Z,71.97
2022-09-11T03:20:10.339Z,71.88
2022-09-11T03:20:44.329Z,71.72
2022-09-11T03:21:16.929Z,72.03
2022-09-11T03:21:48.604Z,72.00
2022-09-11T03:22:20.320Z,72.25
2022-09-11T03:22:52.940Z,71.90
2022-09-11T03:23:25.325Z,72.00
2022-09-11T03:23:57.890Z,72.07
2022-09-11T03:24:35.707Z,72.65
2022-09-11T03:25:07.761Z,72.25
2022-09-11T03:25:40.362Z,71.45
2022-09-11T03:26:13.454Z,73.03
2022-09-11T03:26:58.424Z,72.35
2022-09-11T03:27:30.103Z,72.05
2022-09-11T03:28:04.625Z,72.07
2022-09-11T03:28:41.265Z,71.78
2022-09-11T03:29:14.757Z,71.72
2022-09-11T03:29:49.898Z,71.57
2022-09-11T03:30:21.770Z,72.53
2022-09-11T03:30:53.615Z,72.05
2022-09-11T03:31:26.387Z,71.53
2022-09-11T03:31:58.857Z,72.78
2022-09-11T03:32:32.338Z,70.85
2022-09-11T03:33:05.124Z,71.95
2022-09-11T03:33:37.552Z,71.72
2022-09-11T03:34:10.365Z,72.53
2022-09-11T03:34:43.337Z,71.65
2022-09-11T03:35:16.335Z,72.50
2022-09-11T03:35:47.971Z,72.05
2022-09-11T03:36:21.272Z,71.67
2022-09-11T03:36:53.145Z,71.53
2022-09-11T03:37:26.138Z,71.68
2022-09-11T03:37:59.337Z,72.18
2022-09-11T03:38:31.108Z,70.97
2022-09-11T03:39:03.655Z,71.80
2022-09-11T03:39:36.811Z,72.03
2022-09-11T03:40:09.027Z,72.25
2022-09-11T03:40:41.917Z,72.10
2022-09-11T03:41:14.623Z,72.18
2022-09-11T03:41:46.225Z,71.00
2022-09-11T03:42:17.997Z,71.28
2022-09-11T03:42:50.713Z,71.10
2022-09-11T03:43:22.818Z,72.85
2022-09-11T03:43:54.463Z,71.28
2022-09-11T03:44:27.475Z,71.57
2022-09-11T03:45:00.488Z,71.43
2022-09-11T03:45:32.375Z,71.72
2022-09-11T03:46:05.291Z,70.93
2022-09-11T03:46:37.102Z,71.63
2022-09-11T03:47:08.861Z,71.85
2022-09-11T03:47:41.031Z,71.40
2022-09-11T03:48:13.796Z,71.57
2022-09-11T03:48:46.936Z,70.55
2022-09-11T03:49:19.013Z,71.80
2022-09-11T03:49:51.749Z,72.30
2022-09-11T03:50:23.372Z,72.65
2022-09-11T03:50:55.063Z,71.65
2022-09-11T03:51:27.748Z,71.43
2022-09-11T03:52:00.735Z,71.43
2022-09-11T03:52:32.579Z,70.93
2022-09-11T03:53:05.224Z,71.07
2022-09-11T03:53:38.795Z,71.45
2022-09-11T03:54:10.802Z,71.38
2022-09-11T03:54:43.455Z,71.53
2022-09-11T03:55:16.524Z,71.03
2022-09-11T03:55:50.085Z,71.03
2022-09-11T03:56:21.792Z,71.95
2022-09-11T03:56:55.005Z,70.13
2022-09-11T03:57:26.785Z,71.18
2022-09-11T03:57:59.359Z,70.45
2022-09-11T03:58:31.097Z,71.03
2022-09-11T03:59:03.713Z,70.10
2022-09-11T03:59:35.981Z,70.72
2022-09-11T04:00:10.251Z,70.65
2022-09-11T04:00:56.199Z,70.80
2022-09-11T04:01:28.446Z,70.50
2022-09-11T04:02:01.498Z,70.93
2022-09-11T04:02:34.299Z,71.93
2022-09-11T04:03:05.900Z,70.80
2022-09-11T04:03:42.275Z,71.15
2022-09-11T04:04:21.176Z,69.93
2022-09-11T04:04:52.887Z,71.07
2022-09-11T04:05:24.695Z,71.32
2022-09-11T04:05:59.789Z,70.30
2022-09-11T04:06:32.126Z,70.72
2022-09-11T04:07:04.243Z,71.53
2022-09-11T04:07:36.906Z,69.50
2022-09-11T04:08:11.153Z,71.43
2022-09-11T04:08:42.810Z,69.97
2022-09-11T04:09:17.226Z,70.72
2022-09-11T04:09:48.980Z,70.80
2022-09-11T04:10:21.028Z,69.97
2022-09-11T04:10:57.248Z,70.65
2022-09-11T04:11:32.354Z,71.65
2022-09-11T04:12:07.245Z,70.60
2022-09-11T04:12:38.886Z,70.10
2022-09-11T04:13:12.073Z,70.72
2022-09-11T04:13:44.723Z,70.55
2022-09-11T04:14:19.417Z,69.88
2022-09-11T04:14:51.176Z,70.25
2022-09-11T04:15:25.806Z,70.22
2022-09-11T04:16:00.579Z,70.40
2022-09-11T04:16:33.387Z,70.75
2022-09-11T04:17:08.187Z,70.65
2022-09-11T04:17:42.463Z,70.75
2022-09-11T04:18:15.196Z,70.50
2022-09-11T04:18:49.459Z,70.45
2022-09-11T04:19:21.661Z,70.60
2022-09-11T04:19:53.573Z,69.88
2022-09-11T04:20:27.532Z,70.78
2022-09-11T04:20:59.197Z,70.72
2022-09-11T04:21:31.157Z,70.38
2022-09-11T04:22:04.715Z,70.35
2022-09-11T04:22:41.992Z,70.45
2022-09-11T04:23:14.273Z,70.80
2022-09-11T04:23:51.824Z,71.40
2022-09-11T04:24:23.469Z,71.25
2022-09-11T04:24:55.088Z,71.35
2022-09-11T04:25:29.022Z,69.85
2022-09-11T04:26:01.010Z,70.15
2022-09-11T04:26:33.495Z,70.55
2022-09-11T04:27:13.451Z,71.07
2022-09-11T04:27:45.054Z,70.38
2022-09-11T04:28:20.574Z,70.35
2022-09-11T04:28:53.190Z,70.03
2022-09-11T04:29:26.234Z,71.13
2022-09-11T04:29:58.955Z,71.22
2022-09-11T04:30:38.435Z,69.90
2022-09-11T04:31:10.437Z,70.30
2022-09-11T04:31:42.365Z,70.80
2022-09-11T04:32:16.971Z,70.60
2022-09-11T04:32:48.735Z,69.75
2022-09-11T04:33:21.820Z,69.60
2022-09-11T04:33:57.760Z,69.75
2022-09-11T04:34:32.696Z,70.80
2022-09-11T04:35:04.688Z,70.60
2022-09-11T04:35:42.638Z,70.03
2022-09-11T04:36:17.463Z,70.07
2022-09-11T04:36:49.181Z,69.78
2022-09-11T04:37:25.706Z,69.88
2022-09-11T04:37:57.448Z,70.53
2022-09-11T04:38:29.779Z,70.25
2022-09-11T04:39:02.743Z,69.60
2022-09-11T04:39:35.804Z,70.43
2022-09-11T04:40:09.914Z,69.70
2022-09-11T04:40:42.784Z,69.95
2022-09-11T04:41:15.131Z,70.40
2022-09-11T04:41:46.914Z,70.22
2022-09-11T04:42:19.973Z,69.60
2022-09-11T04:42:51.928Z,69.88
2022-09-11T04:43:24.583Z,69.65
2022-09-11T04:44:02.367Z,70.18
2022-09-11T04:44:36.566Z,70.07
2022-09-11T04:45:08.578Z,70.07
2022-09-11T04:45:43.090Z,70.05
2022-09-11T04:46:17.199Z,69.68
2022-09-11T04:46:49.951Z,70.03
2022-09-11T04:47:23.497Z,70.07
2022-09-11T04:47:55.107Z,69.88
2022-09-11T04:48:26.773Z,69.88
2022-09-11T04:49:00.236Z,70.22
2022-09-11T04:49:33.033Z,69.57
2022-09-11T04:50:05.050Z,70.30
2022-09-11T04:50:37.986Z,68.95
2022-09-11T04:51:21.130Z,69.97
2022-09-11T04:51:53.013Z,70.47
2022-09-11T04:52:29.343Z,68.97
2022-09-11T04:53:01.079Z,69.85
2022-09-11T04:53:33.018Z,70.13
2022-09-11T04:54:06.215Z,70.35
2022-09-11T04:54:41.165Z,70.18
2022-09-11T04:55:15.086Z,70.57
2022-09-11T04:55:47.883Z,69.40
2022-09-11T04:56:21.314Z,70.35
2022-09-11T04:56:54.716Z,70.40
2022-09-11T04:57:28.222Z,70.97
2022-09-11T04:57:59.949Z,70.75
2022-09-11T04:58:31.998Z,70.40
2022-09-11T04:59:06.607Z,69.90
2022-09-11T04:59:40.440Z,70.35
2022-09-11T05:00:17.119Z,70.18
2022-09-11T05:00:51.883Z,70.95
2022-09-11T05:01:25.077Z,71.28
2022-09-11T05:02:00.170Z,71.00
2022-09-11T05:02:34.537Z,70.80
2022-09-11T05:03:06.493Z,69.95
2022-09-11T05:03:38.095Z,69.68
2022-09-11T05:04:10.635Z,70.57
2022-09-11T05:04:43.755Z,70.45
2022-09-11T05:05:16.297Z,70.35
2022-09-11T05:05:47.937Z,71.35
2022-09-11T05:06:20.601Z,70.40
2022-09-11T05:06:52.913Z,70.25
2022-09-11T05:07:25.283Z,70.32
2022-09-11T05:07:59.573Z,69.57
2022-09-11T05:08:32.861Z,70.57
2022-09-11T05:09:06.717Z,69.72
2022-09-11T05:09:41.018Z,70.10
2022-09-11T05:10:12.652Z,71.10
2022-09-11T05:10:44.442Z,70.43
2022-09-11T05:11:17.829Z,69.47
2022-09-11T05:11:50.444Z,69.43
2022-09-11T05:12:22.729Z,70.03
2022-09-11T05:12:55.565Z,70.22
2022-09-11T05:13:27.383Z,70.50
2022-09-11T05:13:59.536Z,71.07
2022-09-11T05:14:35.887Z,70.85
2022-09-11T05:15:08.664Z,70.50
2022-09-11T05:15:40.280Z,70.22
2022-09-11T05:16:15.421Z,70.90
2022-09-11T05:16:47.585Z,70.38
2022-09-11T05:17:22.303Z,70.47
2022-09-11T05:17:53.973Z,69.93
2022-09-11T05:18:26.179Z,71.38
2022-09-11T05:18:59.465Z,70.57
2022-09-11T05:19:31.109Z,70.43
2022-09-11T05:20:03.047Z,69.60
2022-09-11T05:20:36.963Z,70.72
2022-09-11T05:21:11.171Z,70.00
2022-09-11T05:21:42.880Z,70.25
2022-09-11T05:22:15.801Z,69.53
2022-09-11T05:22:51.417Z,69.57
2022-09-11T05:23:23.114Z,70.57
2022-09-11T05:23:57.934Z,70.88
2022-09-11T05:24:30.550Z,71.70
2022-09-11T05:25:02.595Z,71.13
2022-09-11T05:25:37.010Z,70.10
2022-09-11T05:26:19.026Z,71.35
2022-09-11T05:26:51.911Z,71.45
2022-09-11T05:27:23.556Z,71.07
2022-09-11T05:27:55.281Z,70.05
2022-09-11T05:28:28.222Z,70.70
2022-09-11T05:29:01.857Z,70.93
2022-09-11T05:29:34.704Z,70.57
2022-09-11T05:30:09.854Z,70.30
2022-09-11T05:30:42.592Z,72.07
2022-09-11T05:31:17.052Z,71.93
2022-09-11T05:31:49.930Z,71.28
2022-09-11T05:32:24.859Z,71.30
2022-09-11T05:32:56.509Z,71.65
2022-09-11T05:33:29.660Z,71.45
2022-09-11T05:34:01.920Z,71.43
2022-09-11T05:34:34.509Z,70.15
2022-09-11T05:35:07.712Z,71.22
2022-09-11T05:35:40.829Z,71.05
2022-09-11T05:36:13.122Z,71.35
2022-09-11T05:36:45.957Z,71.72
2022-09-11T05:37:17.721Z,71.65
2022-09-11T05:37:50.660Z,71.78
2022-09-11T05:38:23.711Z,70.97
2022-09-11T05:38:57.354Z,71.45
2022-09-11T05:39:30.059Z,72.32
2022-09-11T05:40:04.397Z,71.15
2022-09-11T05:40:36.205Z,71.57
2022-09-11T05:41:08.922Z,71.13
2022-09-11T05:41:43.107Z,71.28
2022-09-11T05:42:15.240Z,70.93
2022-09-11T05:42:52.486Z,71.78
2022-09-11T05:43:25.925Z,71.60
2022-09-11T05:43:58.178Z,70.38
2022-09-11T05:44:31.004Z,71.65
2022-09-11T05:45:04.730Z,70.97
2022-09-11T05:45:37.194Z,71.57
2022-09-11T05:46:11.630Z,70.72
2022-09-11T05:46:46.192Z,72.22
2022-09-11T05:47:17.889Z,71.00
2022-09-11T05:47:55.916Z,70.57
2022-09-11T05:48:28.217Z,71.05
2022-09-11T05:49:00.147Z,70.53
2022-09-11T05:49:33.762Z,71.55
2022-09-11T05:50:07.279Z,70.18
2022-09-11T05:50:39.028Z,71.05
2022-09-11T05:51:13.575Z,72.07
2022-09-11T05:51:45.474Z,71.97
2022-09-11T05:52:17.194Z,71.90
2022-09-11T05:52:51.229Z,71.20
2022-09-11T05:53:23.162Z,70.55
2022-09-11T05:53:55.510Z,70.40
2022-09-11T05:54:28.993Z,71.00
2022-09-11T05:55:04.170Z,70.72
2022-09-11T05:55:36.780Z,71.47
2022-09-11T05:56:10.156Z,71.28
2022-09-11T05:56:41.868Z,71.05
2022-09-11T05:57:24.013Z,71.43
2022-09-11T05:57:55.800Z,70.88
2022-09-11T05:58:30.909Z,70.97
2022-09-11T05:59:05.760Z,70.65
2022-09-11T05:59:41.324Z,72.03
2022-09-11T06:00:14.729Z,71.35
2022-09-11T06:01:07.442Z,70.88
2022-09-11T06:01:40.283Z,71.60
2022-09-11T06:02:22.381Z,72.15
2022-09-11T06:03:02.010Z,71.43
2022-09-11T06:03:34.700Z,71.10
2022-09-11T06:04:10.508Z,70.93
2022-09-11T06:04:45.470Z,71.50
2022-09-11T06:05:17.994Z,71.47
2022-09-11T06:05:50.781Z,71.40
2022-09-11T06:06:24.353Z,71.13
2022-09-11T06:06:58.194Z,71.97
2022-09-11T06:07:39.058Z,71.65
2022-09-11T06:08:13.350Z,71.63
2022-09-11T06:08:47.354Z,71.22
2022-09-11T06:09:22.076Z,71.18
2022-09-11T06:09:54.001Z,71.05
2022-09-11T06:10:26.673Z,71.35
2022-09-11T06:10:58.714Z,71.25
2022-09-11T06:11:30.953Z,72.32
2022-09-11T06:12:03.902Z,71.95
2022-09-11T06:12:35.609Z,72.43
2022-09-11T06:13:07.984Z,73.07
2022-09-11T06:13:42.674Z,71.43
2022-09-11T06:14:20.214Z,72.65
2022-09-11T06:14:52.303Z,72.43
2022-09-11T06:15:45.798Z,72.47
2022-09-11T06:16:19.475Z,71.97
2022-09-11T06:16:54.274Z,72.57
2022-09-11T06:17:28.304Z,73.03
2022-09-11T06:18:00.033Z,73.47
2022-09-11T06:18:33.502Z,72.75
2022-09-11T06:19:06.342Z,72.70
2022-09-11T06:19:50.322Z,72.07
2022-09-11T06:20:22.128Z,73.07
2022-09-11T06:20:57.513Z,73.22
2022-09-11T06:21:30.499Z,72.40
2022-09-11T06:22:08.082Z,72.35
2022-09-11T06:22:43.776Z,72.60
2022-09-11T06:23:16.432Z,72.60
2022-09-11T06:23:49.648Z,72.35
2022-09-11T06:24:21.841Z,73.28
2022-09-11T06:24:56.072Z,73.07
2022-09-11T06:25:28.128Z,72.55
2022-09-11T06:26:03.104Z,72.85
2022-09-11T06:26:37.364Z,73.22
2022-09-11T06:27:09.085Z,71.88
2022-09-11T06:27:43.955Z,72.72
2022-09-11T06:28:17.020Z,72.53
2022-09-11T06:28:49.089Z,72.70
2022-09-11T06:29:23.065Z,73.50
2022-09-11T06:29:56.596Z,73.43
2022-09-11T06:30:31.240Z,74.13
2022-09-11T06:31:03.025Z,73.38
2022-09-11T06:31:38.864Z,72.90
2022-09-11T06:32:11.662Z,73.32
2022-09-11T06:32:48.065Z,72.90
2022-09-11T06:33:21.308Z,72.97
2022-09-11T06:33:53.655Z,72.78
2022-09-11T06:34:25.483Z,73.35
2022-09-11T06:35:00.906Z,73.32
2022-09-11T06:35:33.338Z,74.03
2022-09-11T06:36:10.177Z,74.05
2022-09-11T06:36:44.656Z,73.13
2022-09-11T06:37:21.960Z,73.20
2022-09-11T06:37:54.043Z,74.18
2022-09-11T06:38:27.103Z,72.95
2022-09-11T06:38:59.316Z,74.25
2022-09-11T06:39:34.255Z,74.47
2022-09-11T06:40:07.677Z,73.47
2022-09-11T06:40:40.137Z,74.30
2022-09-11T06:41:13.958Z,73.90
2022-09-11T06:41:46.924Z,74.28
2022-09-11T06:42:19.929Z,76.25
2022-09-11T06:42:52.003Z,74.72
2022-09-11T06:43:25.304Z,74.05
2022-09-11T06:43:58.632Z,75.32
2022-09-11T06:44:31.828Z,75.00
2022-09-11T06:45:08.366Z,74.88
2022-09-11T06:45:41.183Z,75.35
2022-09-11T06:46:13.816Z,75.18
2022-09-11T06:46:47.398Z,75.45
2022-09-11T06:47:19.252Z,75.00
2022-09-11T06:47:52.462Z,76.18
2022-09-11T06:48:26.374Z,76.40
2022-09-11T06:48:58.058Z,76.13
2022-09-11T06:49:32.211Z,76.03
2022-09-11T06:50:23.832Z,75.40
2022-09-11T06:51:28.030Z,74.88
2022-09-11T06:52:00.738Z,74.80
2022-09-11T06:52:34.811Z,75.03
2022-09-11T06:53:36.776Z,75.18
2022-09-11T06:54:16.146Z,75.30
2022-09-11T06:54:50.061Z,75.20
2022-09-11T06:55:22.459Z,75.00
2022-09-11T06:56:04.950Z,74.95
2022-09-11T06:56:37.772Z,74.57
2022-09-11T06:57:09.737Z,74.55
2022-09-11T06:57:42.171Z,73.10
2022-09-11T06:58:19.760Z,74.03
2022-09-11T06:58:51.862Z,74.55
2022-09-11T06:59:26.519Z,74.32
2022-09-11T07:00:01.967Z,73.82
2022-09-11T07:00:38.903Z,74.35
2022-09-11T07:01:11.617Z,74.85
2022-09-11T07:01:46.228Z,74.78
2022-09-11T07:02:18.691Z,74.72
2022-09-11T07:02:58.513Z,74.15
2022-09-11T07:03:31.249Z,73.45
2022-09-11T07:04:04.363Z,73.57
2022-09-11T07:04:38.612Z,71.68
2022-09-11T07:05:13.371Z,71.53
2022-09-11T07:05:46.531Z,72.75
2022-09-11T07:06:19.922Z,72.43
2022-09-11T07:06:52.360Z,72.30
2022-09-11T07:07:25.070Z,72.43
2022-09-11T07:07:57.116Z,71.57
2022-09-11T07:08:31.564Z,71.18
2022-09-11T07:09:04.305Z,71.75
2022-09-11T07:09:44.843Z,71.10
2022-09-11T07:10:17.409Z,71.05
2022-09-11T07:10:55.328Z,70.72
2022-09-11T07:11:27.214Z,72.38
2022-09-11T07:11:59.813Z,70.93
2022-09-11T07:12:32.453Z,68.82
2022-09-11T07:13:04.338Z,69.53
2022-09-11T07:13:38.132Z,69.15
2022-09-11T07:14:21.155Z,68.22
2022-09-11T07:14:54.398Z,68.68
2022-09-11T07:15:27.146Z,68.15
2022-09-11T07:16:01.977Z,67.50
2022-09-11T07:16:39.461Z,68.45
2022-09-11T07:17:16.048Z,67.05
2022-09-11T07:17:49.923Z,67.32
2022-09-11T07:18:22.978Z,66.93
2022-09-11T07:18:55.762Z,67.05
2022-09-11T07:19:27.719Z,67.03
2022-09-11T07:19:59.568Z,67.68
2022-09-11T07:20:32.268Z,67.45
2022-09-11T07:21:07.014Z,67.18
2022-09-11T07:21:40.396Z,66.38
2022-09-11T07:22:14.653Z,67.65
2022-09-11T07:22:46.750Z,67.55
2022-09-11T07:23:21.292Z,67.88
2022-09-11T07:23:58.659Z,67.38
2022-09-11T07:24:33.110Z,66.53
2022-09-11T07:25:08.846Z,66.28
2022-09-11T07:25:44.000Z,66.78
2022-09-11T07:26:16.918Z,67.88
2022-09-11T07:26:49.647Z,67.28
2022-09-11T07:27:33.737Z,67.38
2022-09-11T07:28:07.692Z,67.28
2022-09-11T07:28:40.174Z,68.40
2022-09-11T07:29:12.792Z,67.10
2022-09-11T07:29:47.761Z,66.93
2022-09-11T07:30:19.426Z,66.88
2022-09-11T07:30:55.026Z,66.32
2022-09-11T07:31:29.360Z,66.43
2022-09-11T07:32:01.098Z,66.30
2022-09-11T07:32:33.188Z,67.30
2022-09-11T07:33:06.033Z,65.97